x

Corpus Christi, Tx - 60nm Sse Of Corpus Christi, Tx (42020) Wave Buoy

4:50am - Wed 23rd Apr 2014 All times are CDT. -5 hours from GMT.

  • Sig Wave height 1.6ft
  • Swell Direction
  • Peak Period 5s
  • Average Period 4s
  • Wind
    4mph
  • Sea Temp 70°f
  • Air Temp 71°f
  • Sea Pressure 1012.7mb
  • Corpus Christi, Tx - 60nm Sse Of Corpus Christi, Tx
  • Corpus Christi, Tx - 60nm Sse Of Corpus Christi, Tx

More Historic Weather Station data

Upgrade to MSW Pro to gain access to the past 30 days of data for over 8000 Wavebouys and Weather Stations around the globe.

Join Pro

Comparision Forecast

View Surf forecast
   
Wed 04/23 4:50am 1.6ft 5s 4s 4
mph
1012.7mb 70f 71f
3:50am 1.3ft 5s 4s 4 7 mph 1012.6mb 70f 70f
2:50am 1.3ft 5s 4s 7
mph
1013mb 71f 71f
1:50am 1.3ft 5s 4s 7
mph
1013.5mb 71f 71f
12:50am 1.3ft 4s 4s 9
mph
1013.9mb 70f 71f
Tue 04/22 11:50pm 1.3ft 5s 4s 9
mph
1014mb 70f 71f
10:50pm 1.3ft 6s 4s 9 11 mph 1013.8mb 70f 72f
9:50pm 1.6ft 5s 4s 9 11 mph 1013.7mb 71f 72f
8:50pm 1.3ft 5s 4s 11
mph
1012.9mb 71f 72f
7:50pm 1.3ft 5s 4s 13 16 mph 1012.2mb 72f 72f
6:50pm 1.3ft 5s 4s 9
mph
1012.4mb 72f 73f
5:50pm 1.3ft 5s 4s 9
mph
1013mb 73f 73f
4:50pm 1.3ft 5s 4s 7
mph
1013.3mb 74f 73f
3:50pm 1.3ft 5s 4s 7
mph
1013.8mb 74f 73f
2:50pm 1.3ft 5s 4s 4
mph
1014.9mb 74f 72f
1:50pm 1.3ft 5s 4s 4
mph
1015.5mb 73f 72f
12:50pm 1.3ft 5s 4s 2 4 mph 1016.1mb 72f 71f
11:50am 1.6ft 5s 4s 4 7 mph 1016.6mb 71f 71f
10:50am 1.6ft 5s 4s 7 9 mph 1016.5mb 70f 70f
9:50am 1.6ft 5s 4s 4
mph
1016.6mb 70f 70f
8:50am 1.6ft 5s 4s 2
mph
1016.3mb 70f 70f
7:50am 1.6ft 6s 4s  -  2 mph 1015.3mb 70f 70f
6:50am 1.6ft 5s 4s 2
mph
1014.6mb 70f 70f
5:50am 1.6ft 5s 4s 4 7 mph 1014.6mb 70f 70f
4:50am 2ft 5s 4s 11
mph
1014mb 70f 70f
3:50am 2ft 5s 4s 7 11 mph 1014.2mb 70f 70f
2:50am 2ft 6s 4s 4
mph
1015.9mb 70f 70f
1:50am 2ft 5s 4s 2 4 mph 1016.7mb 70f 70f
12:50am 2ft 5s 4s 4
mph
1016.6mb 70f 70f
Mon 04/21 11:50pm 2ft 5s 4s 4 7 mph 1016.6mb 70f 70f
10:50pm 2.5ft 5s 4s 7
mph
1016.2mb 70f 70f
9:50pm 2.5ft 5s 4s 9 11 mph 1016mb 71f 71f
8:50pm 2.5ft 5s 4s 11 13 mph 1015.4mb 70f 71f
7:50pm 2.5ft 5s 4s 11 13 mph 1014.9mb 71f 71f
6:50pm 2.5ft 5s 4s 11 13 mph 1015.2mb 71f 71f
5:50pm 2.5ft 6s 5s 11
mph
1015.4mb 71f 71f
4:50pm 2.5ft 5s 5s 9
mph
1015.8mb 71f 71f
3:50pm 2.5ft 5s 5s 9 11 mph 1016.4mb 71f 71f
2:50pm 2.5ft 5s 4s 7 9 mph 1017.2mb 71f 71f
1:50pm 2.5ft 5s 5s 7 9 mph 1017.5mb 71f 71f
12:50pm 2.5ft 5s 4s 7 9 mph 1018mb 70f 70f
11:50am 2.5ft 5s 4s 7 9 mph 1018.3mb 70f 70f
10:50am 2.5ft 5s 4s 4 7 mph 1018.3mb 69f 70f
9:50am 2.5ft 5s 4s 7 9 mph 1018mb 69f 70f
8:50am 2.5ft 5s 4s 7 9 mph 1017.7mb 69f 69f
7:50am 2.5ft 5s 4s 7
mph
1017.5mb 69f 69f
6:50am 2.5ft 5s 4s 9
mph
1016.9mb 69f 69f
5:50am 2.5ft 5s 4s 7
mph
1017.1mb 69f 69f
4:50am 2.5ft 5s 4s 2 4 mph 1017.2mb 69f 70f
3:50am 2.5ft 5s 4s 11 13 mph 1016.1mb 69f 70f
2:50am 2.5ft 5s 4s 11 13 mph 1016.5mb 69f 69f
1:50am 2.5ft 5s 4s 9 11 mph 1017.6mb 69f 69f
12:50am 2.5ft 5s 4s 9
mph
1018.2mb 69f 69f
Sun 04/20 11:50pm 2.5ft 5s 4s 9
mph
1018.3mb 69f 69f
10:50pm 2.5ft 5s 5s 9
mph
1018.5mb 69f 69f
9:50pm 2.5ft 5s 4s 11 13 mph 1018.1mb 69f 69f
8:50pm 3ft 5s 4s 11 13 mph 1017.5mb 69f 69f
7:50pm 3ft 5s 4s 11
mph
1017.2mb 69f 69f
6:50pm 3ft 5s 4s 11 13 mph 1017.3mb 69f 70f
5:50pm 3ft 5s 4s 11 13 mph 1017.5mb 69f 69f
4:50pm 3.5ft 5s 4s 11 13 mph 1018.1mb 69f 69f
3:50pm 3.5ft 5s 4s 13
mph
1018.4mb 69f 69f
2:50pm 3ft 6s 4s 16
mph
1018.9mb 69f 69f
1:50pm 3.5ft 5s 5s 13 16 mph 1019.5mb 68f 69f
12:50pm 3ft 6s 5s 13 16 mph 1019.9mb 68f 69f
11:50am 3.5ft 5s 5s 11 13 mph 1020.5mb 68f 69f
10:50am 3.5ft 5s 5s 9
mph
1020.8mb 68f 69f
9:50am 3.5ft 5s 5s 13 16 mph 1020mb 67f 69f
8:50am 3.5ft 5s 5s 13
mph
1019.8mb 67f 69f
7:50am 3.5ft 5s 5s 11 13 mph 1019.4mb 67f 69f
6:50am 3.5ft 5s 4s 13 16 mph 1018.4mb 67f 69f
5:50am 3.5ft 5s 4s 16 18 mph 1017.9mb 67f 69f
4:50am 3.5ft 8s 5s 16 18 mph 1017.8mb 67f 69f
3:50am 3.5ft 5s 4s 16 18 mph 1017.5mb 67f 69f
2:50am 3.5ft 5s 4s 13 18 mph 1018mb 67f 69f
1:50am 3.5ft 4s 4s 13 16 mph 1018.8mb 67f 69f
12:50am 3ft 7s 4s 13 16 mph 1019.1mb 67f 69f
Sat 04/19 11:50pm 3ft 8s 4s 13 16 mph 1019.2mb 67f 69f
10:50pm 3.5ft 5s 4s 13 16 mph 1019mb 67f 69f
9:50pm 3.5ft 8s 5s 9 11 mph 1019.5mb 68f 69f
8:50pm 3.5ft 8s 5s 13 16 mph 1018.7mb 68f 69f
7:50pm 3.5ft 8s 5s 11 13 mph 1018.7mb 68f 69f
6:50pm 3.5ft 8s 5s 11 13 mph 1018.4mb 68f 69f
5:50pm 3.5ft 8s 5s 13 16 mph 1018.4mb 68f 69f
4:50pm 3.5ft 8s 5s 13 18 mph 1018.3mb 68f 69f
3:50pm 3.5ft 8s 5s 13 16 mph 1018.9mb 68f 69f
2:50pm 3.5ft 9s 5s 11 13 mph 1019.9mb 68f 69f
1:50pm 3.5ft 8s 5s 11 13 mph 1020.6mb 67f 69f
12:50pm 4ft 8s 6s 11
mph
1020.8mb 67f 69f
11:50am 4.5ft 9s 6s 9 11 mph 1021.2mb 67f 68f